sensor_id;sensor_type;location;lat;lon;timestamp;pressure;altitude;pressure_sealevel;temperature;humidity
66945;BME280;53853;51.982;5.928;2023-02-03T00:00:48;102304.00;;;9.70;81.42
66945;BME280;53853;51.982;5.928;2023-02-03T00:03:17;102299.75;;;9.67;80.73
66945;BME280;53853;51.982;5.928;2023-02-03T00:05:48;102296.25;;;9.67;80.69
66945;BME280;53853;51.982;5.928;2023-02-03T00:08:19;102296.34;;;9.65;80.64
66945;BME280;53853;51.982;5.928;2023-02-03T00:10:49;102305.50;;;9.61;80.29
66945;BME280;53853;51.982;5.928;2023-02-03T00:13:19;102302.00;;;9.60;80.80
66945;BME280;53853;51.982;5.928;2023-02-03T00:15:54;102311.91;;;9.58;80.75
66945;BME280;53853;51.982;5.928;2023-02-03T00:18:24;102318.81;;;9.61;80.73
66945;BME280;53853;51.982;5.928;2023-02-03T00:20:53;102320.00;;;9.57;80.17
66945;BME280;53853;51.982;5.928;2023-02-03T00:23:23;102334.16;;;9.57;80.43
66945;BME280;53853;51.982;5.928;2023-02-03T00:25:56;102322.75;;;9.55;80.33
66945;BME280;53853;51.982;5.928;2023-02-03T00:28:28;102326.16;;;9.57;80.39
66945;BME280;53853;51.982;5.928;2023-02-03T00:31:01;102323.59;;;9.56;80.43
66945;BME280;53853;51.982;5.928;2023-02-03T00:33:31;102327.03;;;9.58;80.80
66945;BME280;53853;51.982;5.928;2023-02-03T00:36:04;102334.88;;;9.59;80.79
66945;BME280;53853;51.982;5.928;2023-02-03T00:38:35;102340.09;;;9.61;80.16
66945;BME280;53853;51.982;5.928;2023-02-03T00:41:06;102343.53;;;9.63;80.84
66945;BME280;53853;51.982;5.928;2023-02-03T00:43:36;102346.19;;;9.63;80.26
66945;BME280;53853;51.982;5.928;2023-02-03T00:46:08;102347.97;;;9.63;80.34
66945;BME280;53853;51.982;5.928;2023-02-03T00:48:38;102338.19;;;9.63;80.46
66945;BME280;53853;51.982;5.928;2023-02-03T00:51:08;102340.66;;;9.66;80.52
66945;BME280;53853;51.982;5.928;2023-02-03T00:53:38;102341.50;;;9.67;79.97
66945;BME280;53853;51.982;5.928;2023-02-03T00:56:08;102342.34;;;9.67;79.71
66945;BME280;53853;51.982;5.928;2023-02-03T00:58:38;102338.63;;;9.70;79.83
66945;BME280;53853;51.982;5.928;2023-02-03T01:01:11;102334.34;;;9.67;79.64
66945;BME280;53853;51.982;5.928;2023-02-03T01:03:41;102337.00;;;9.67;79.72
66945;BME280;53853;51.982;5.928;2023-02-03T01:06:14;102342.34;;;9.67;80.17
66945;BME280;53853;51.982;5.928;2023-02-03T01:08:44;102333.50;;;9.67;79.64
66945;BME280;53853;51.982;5.928;2023-02-03T01:11:16;102324.69;;;9.66;79.94
66945;BME280;53853;51.982;5.928;2023-02-03T01:13:48;102328.81;;;9.70;80.23
66945;BME280;53853;51.982;5.928;2023-02-03T01:16:22;102327.88;;;9.71;80.07
66945;BME280;53853;51.982;5.928;2023-02-03T01:18:53;102326.16;;;9.70;79.34
66945;BME280;53853;51.982;5.928;2023-02-03T01:21:24;102312.09;;;9.68;79.55
66945;BME280;53853;51.982;5.928;2023-02-03T01:23:57;102310.59;;;9.64;79.45
66945;BME280;53853;51.982;5.928;2023-02-03T01:26:27;102318.69;;;9.63;79.45
66945;BME280;53853;51.982;5.928;2023-02-03T01:28:58;102299.97;;;9.64;79.89
66945;BME280;53853;51.982;5.928;2023-02-03T01:31:32;102314.03;;;9.66;79.86
66945;BME280;53853;51.982;5.928;2023-02-03T01:34:10;102312.84;;;9.70;79.60
66945;BME280;53853;51.982;5.928;2023-02-03T01:36:43;102305.84;;;9.69;79.48
66945;BME280;53853;51.982;5.928;2023-02-03T01:39:13;102304.84;;;9.70;79.43
66945;BME280;53853;51.982;5.928;2023-02-03T01:41:46;102290.69;;;9.70;79.11
66945;BME280;53853;51.982;5.928;2023-02-03T01:44:46;102280.28;;;9.67;79.11
66945;BME280;53853;51.982;5.928;2023-02-03T01:47:27;102283.78;;;9.67;79.47
66945;BME280;53853;51.982;5.928;2023-02-03T01:50:05;102267.81;;;9.67;79.37
66945;BME280;53853;51.982;5.928;2023-02-03T01:52:36;102266.13;;;9.66;78.91
66945;BME280;53853;51.982;5.928;2023-02-03T01:55:09;102263.25;;;9.69;79.15
66945;BME280;53853;51.982;5.928;2023-02-03T01:57:43;102272.38;;;9.65;79.17
66945;BME280;53853;51.982;5.928;2023-02-03T02:00:15;102275.38;;;9.60;78.89
66945;BME280;53853;51.982;5.928;2023-02-03T02:02:49;102278.03;;;9.60;79.19
66945;BME280;53853;51.982;5.928;2023-02-03T02:05:23;102297.41;;;9.63;79.65
66945;BME280;53853;51.982;5.928;2023-02-03T02:07:56;102284.88;;;9.65;79.28
66945;BME280;53853;51.982;5.928;2023-02-03T02:10:28;102272.50;;;9.64;79.24
66945;BME280;53853;51.982;5.928;2023-02-03T02:13:01;102266.00;;;9.68;79.04
66945;BME280;53853;51.982;5.928;2023-02-03T02:15:38;102251.00;;;9.67;79.00
66945;BME280;53853;51.982;5.928;2023-02-03T02:18:25;102254.72;;;9.64;79.06
66945;BME280;53853;51.982;5.928;2023-02-03T02:24:27;102260.03;;;9.64;79.47
66945;BME280;53853;51.982;5.928;2023-02-03T02:27:07;102257.38;;;9.64;78.96
66945;BME280;53853;51.982;5.928;2023-02-03T02:33:05;102269.94;;;9.62;79.01
66945;BME280;53853;51.982;5.928;2023-02-03T02:35:46;102274.63;;;9.58;79.11
66945;BME280;53853;51.982;5.928;2023-02-03T02:38:37;102283.56;;;9.57;79.13
66945;BME280;53853;51.982;5.928;2023-02-03T02:41:14;102285.41;;;9.57;78.89
66945;BME280;53853;51.982;5.928;2023-02-03T02:43:50;102272.94;;;9.57;79.11
66945;BME280;53853;51.982;5.928;2023-02-03T02:46:29;102284.44;;;9.58;79.01
66945;BME280;53853;51.982;5.928;2023-02-03T02:49:06;102279.22;;;9.56;78.86
66945;BME280;53853;51.982;5.928;2023-02-03T02:51:40;102273.66;;;9.59;78.51
66945;BME280;53853;51.982;5.928;2023-02-03T02:54:16;102275.47;;;9.59;78.19
66945;BME280;53853;51.982;5.928;2023-02-03T02:56:50;102262.28;;;9.57;78.07
66945;BME280;53853;51.982;5.928;2023-02-03T02:59:21;102251.84;;;9.54;77.78
66945;BME280;53853;51.982;5.928;2023-02-03T03:01:52;102228.66;;;9.56;78.19
66945;BME280;53853;51.982;5.928;2023-02-03T03:04:26;102231.31;;;9.56;77.75
66945;BME280;53853;51.982;5.928;2023-02-03T03:07:01;102228.41;;;9.59;78.00
66945;BME280;53853;51.982;5.928;2023-02-03T03:09:34;102225.66;;;9.61;77.43
66945;BME280;53853;51.982;5.928;2023-02-03T03:12:09;102222.03;;;9.62;77.63
66945;BME280;53853;51.982;5.928;2023-02-03T03:14:46;102235.97;;;9.66;77.39
66945;BME280;53853;51.982;5.928;2023-02-03T03:17:23;102234.28;;;9.65;76.99
66945;BME280;53853;51.982;5.928;2023-02-03T03:20:00;102244.81;;;9.66;77.12
66945;BME280;53853;51.982;5.928;2023-02-03T03:22:33;102246.41;;;9.69;77.18
66945;BME280;53853;51.982;5.928;2023-02-03T03:25:09;102250.88;;;9.68;76.85
66945;BME280;53853;51.982;5.928;2023-02-03T03:27:45;102251.63;;;9.70;76.94
66945;BME280;53853;51.982;5.928;2023-02-03T03:30:21;102248.00;;;9.71;77.23
66945;BME280;53853;51.982;5.928;2023-02-03T03:32:52;102251.41;;;9.73;77.13
66945;BME280;53853;51.982;5.928;2023-02-03T03:35:30;102236.41;;;9.72;77.00
66945;BME280;53853;51.982;5.928;2023-02-03T03:38:06;102239.06;;;9.72;77.04
66945;BME280;53853;51.982;5.928;2023-02-03T03:40:42;102258.53;;;9.73;77.14
66945;BME280;53853;51.982;5.928;2023-02-03T03:43:15;102256.50;;;9.76;77.54
66945;BME280;53853;51.982;5.928;2023-02-03T03:45:53;102259.16;;;9.76;76.92
66945;BME280;53853;51.982;5.928;2023-02-03T03:48:28;102249.50;;;9.75;77.20
66945;BME280;53853;51.982;5.928;2023-02-03T03:51:05;102246.06;;;9.73;77.13
66945;BME280;53853;51.982;5.928;2023-02-03T03:53:39;102251.41;;;9.73;76.90
66945;BME280;53853;51.982;5.928;2023-02-03T03:56:16;102267.38;;;9.73;76.79
66945;BME280;53853;51.982;5.928;2023-02-03T03:58:49;102257.91;;;9.69;76.96
66945;BME280;53853;51.982;5.928;2023-02-03T04:01:22;102257.91;;;9.69;77.47
66945;BME280;53853;51.982;5.928;2023-02-03T04:03:57;102256.09;;;9.70;77.39
66945;BME280;53853;51.982;5.928;2023-02-03T04:06:31;102263.97;;;9.71;77.90
66945;BME280;53853;51.982;5.928;2023-02-03T04:09:00;102270.78;;;9.75;77.63
66945;BME280;53853;51.982;5.928;2023-02-03T04:11:31;102272.38;;;9.78;77.80
66945;BME280;53853;51.982;5.928;2023-02-03T04:14:13;102271.41;;;9.79;77.43
66945;BME280;53853;51.982;5.928;2023-02-03T04:16:43;102276.00;;;9.77;77.04
66945;BME280;53853;51.982;5.928;2023-02-03T04:19:13;102257.38;;;9.77;76.86
66945;BME280;53853;51.982;5.928;2023-02-03T04:21:46;102265.47;;;9.75;77.28
66945;BME280;53853;51.982;5.928;2023-02-03T04:24:15;102262.03;;;9.73;77.14
66945;BME280;53853;51.982;5.928;2023-02-03T04:26:45;102254.94;;;9.74;77.31
66945;BME280;53853;51.982;5.928;2023-02-03T04:29:15;102258.44;;;9.74;77.42
66945;BME280;53853;51.982;5.928;2023-02-03T04:31:45;102270.78;;;9.75;77.53
66945;BME280;53853;51.982;5.928;2023-02-03T04:34:15;102265.59;;;9.74;77.41
66945;BME280;53853;51.982;5.928;2023-02-03T04:36:48;102258.53;;;9.73;77.09
66945;BME280;53853;51.982;5.928;2023-02-03T04:39:17;102258.44;;;9.74;77.41
66945;BME280;53853;51.982;5.928;2023-02-03T04:41:48;102252.16;;;9.75;77.33
66945;BME280;53853;51.982;5.928;2023-02-03T04:44:18;102240.63;;;9.75;77.18
66945;BME280;53853;51.982;5.928;2023-02-03T04:46:48;102237.25;;;9.73;77.22
66945;BME280;53853;51.982;5.928;2023-02-03T04:49:18;102245.22;;;9.73;77.02
66945;BME280;53853;51.982;5.928;2023-02-03T04:51:50;102239.91;;;9.73;77.09
66945;BME280;53853;51.982;5.928;2023-02-03T04:54:20;102239.28;;;9.69;77.01
66945;BME280;53853;51.982;5.928;2023-02-03T04:56:50;102224.88;;;9.72;77.38
66945;BME280;53853;51.982;5.928;2023-02-03T04:59:20;102229.16;;;9.74;77.32
66945;BME280;53853;51.982;5.928;2023-02-03T05:01:50;102235.22;;;9.76;77.40
66945;BME280;53853;51.982;5.928;2023-02-03T05:04:20;102240.75;;;9.73;76.75
66945;BME280;53853;51.982;5.928;2023-02-03T05:06:52;102246.06;;;9.73;76.75
66945;BME280;53853;51.982;5.928;2023-02-03T05:09:23;102233.75;;;9.72;76.90
66945;BME280;53853;51.982;5.928;2023-02-03T05:11:53;102237.56;;;9.68;76.73
66945;BME280;53853;51.982;5.928;2023-02-03T05:14:23;102239.28;;;9.69;77.24
66945;BME280;53853;51.982;5.928;2023-02-03T05:16:53;102230.53;;;9.67;77.14
66945;BME280;53853;51.982;5.928;2023-02-03T05:19:23;102233.84;;;9.71;77.09
66945;BME280;53853;51.982;5.928;2023-02-03T05:21:55;102231.50;;;9.66;77.02
66945;BME280;53853;51.982;5.928;2023-02-03T05:24:25;102221.72;;;9.67;77.13
66945;BME280;53853;51.982;5.928;2023-02-03T05:26:55;102241.06;;;9.69;77.35
66945;BME280;53853;51.982;5.928;2023-02-03T05:29:25;102249.94;;;9.69;77.16
66945;BME280;53853;51.982;5.928;2023-02-03T05:31:54;102267.06;;;9.65;77.28
66945;BME280;53853;51.982;5.928;2023-02-03T05:34:24;102229.91;;;9.64;77.34
66945;BME280;53853;51.982;5.928;2023-02-03T05:36:57;102235.34;;;9.62;77.54
66945;BME280;53853;51.982;5.928;2023-02-03T05:39:27;102225.75;;;9.59;77.36
66945;BME280;53853;51.982;5.928;2023-02-03T05:41:57;102238.84;;;9.63;77.93
66945;BME280;53853;51.982;5.928;2023-02-03T05:44:26;102243.75;;;9.69;78.17
66945;BME280;53853;51.982;5.928;2023-02-03T05:46:58;102245.34;;;9.71;77.28
66945;BME280;53853;51.982;5.928;2023-02-03T05:49:28;102237.34;;;9.71;77.46
66945;BME280;53853;51.982;5.928;2023-02-03T05:52:00;102251.63;;;9.70;77.31
66945;BME280;53853;51.982;5.928;2023-02-03T05:54:30;102236.94;;;9.65;77.52
66945;BME280;53853;51.982;5.928;2023-02-03T05:57:00;102246.50;;;9.67;77.58
66945;BME280;53853;51.982;5.928;2023-02-03T05:59:30;102231.50;;;9.66;77.44
66945;BME280;53853;51.982;5.928;2023-02-03T06:02:00;102224.59;;;9.64;77.45
66945;BME280;53853;51.982;5.928;2023-02-03T06:04:29;102239.72;;;9.63;77.61
66945;BME280;53853;51.982;5.928;2023-02-03T06:07:02;102231.84;;;9.61;77.61
66945;BME280;53853;51.982;5.928;2023-02-03T06:09:32;102254.91;;;9.61;77.50
66945;BME280;53853;51.982;5.928;2023-02-03T06:12:02;102254.81;;;9.63;77.42
66945;BME280;53853;51.982;5.928;2023-02-03T06:14:32;102246.72;;;9.64;77.69
66945;BME280;53853;51.982;5.928;2023-02-03T06:17:01;102240.66;;;9.62;77.64
66945;BME280;53853;51.982;5.928;2023-02-03T06:19:31;102246.00;;;9.62;77.74
66945;BME280;53853;51.982;5.928;2023-02-03T06:22:04;102250.38;;;9.63;77.93
66945;BME280;53853;51.982;5.928;2023-02-03T06:24:34;102240.56;;;9.64;77.65
66945;BME280;53853;51.982;5.928;2023-02-03T06:27:03;102252.03;;;9.64;77.72
66945;BME280;53853;51.982;5.928;2023-02-03T06:29:33;102244.81;;;9.66;77.74
66945;BME280;53853;51.982;5.928;2023-02-03T06:32:03;102244.94;;;9.65;77.82
66945;BME280;53853;51.982;5.928;2023-02-03T06:34:33;102240.88;;;9.59;77.84
66945;BME280;53853;51.982;5.928;2023-02-03T06:37:06;102240.78;;;9.60;78.23
66945;BME280;53853;51.982;5.928;2023-02-03T06:39:36;102259.31;;;9.62;77.92
66945;BME280;53853;51.982;5.928;2023-02-03T06:42:06;102270.69;;;9.64;77.98
66945;BME280;53853;51.982;5.928;2023-02-03T06:44:35;102273.13;;;9.67;78.08
66945;BME280;53853;51.982;5.928;2023-02-03T06:47:05;102276.56;;;9.69;77.85
66945;BME280;53853;51.982;5.928;2023-02-03T06:49:35;102282.81;;;9.68;77.71
66945;BME280;53853;51.982;5.928;2023-02-03T06:52:08;102281.00;;;9.69;78.03
66945;BME280;53853;51.982;5.928;2023-02-03T06:54:38;102279.94;;;9.71;78.14
66945;BME280;53853;51.982;5.928;2023-02-03T06:57:08;102268.25;;;9.74;77.55
66945;BME280;53853;51.982;5.928;2023-02-03T06:59:38;102271.75;;;9.74;77.62
66945;BME280;53853;51.982;5.928;2023-02-03T07:02:09;102275.34;;;9.73;77.70
66945;BME280;53853;51.982;5.928;2023-02-03T07:04:39;102283.66;;;9.69;77.42
66945;BME280;53853;51.982;5.928;2023-02-03T07:07:13;102284.66;;;9.68;77.82
66945;BME280;53853;51.982;5.928;2023-02-03T07:09:43;102287.19;;;9.69;78.12
66945;BME280;53853;51.982;5.928;2023-02-03T07:12:13;102290.59;;;9.71;77.90
66945;BME280;53853;51.982;5.928;2023-02-03T07:14:43;102283.34;;;9.73;78.08
66945;BME280;53853;51.982;5.928;2023-02-03T07:17:13;102296.03;;;9.70;77.72
66945;BME280;53853;51.982;5.928;2023-02-03T07:19:43;102312.72;;;9.72;78.01
66945;BME280;53853;51.982;5.928;2023-02-03T07:22:15;102298.59;;;9.71;77.78
66945;BME280;53853;51.982;5.928;2023-02-03T07:24:45;102294.09;;;9.72;77.71
66945;BME280;53853;51.982;5.928;2023-02-03T07:27:15;102297.63;;;9.72;77.87
66945;BME280;53853;51.982;5.928;2023-02-03T07:29:46;102292.31;;;9.72;77.88
66945;BME280;53853;51.982;5.928;2023-02-03T07:32:16;102294.22;;;9.70;77.74
66945;BME280;53853;51.982;5.928;2023-02-03T07:34:45;102291.53;;;9.70;77.87
66945;BME280;53853;51.982;5.928;2023-02-03T07:37:18;102281.66;;;9.72;78.26
66945;BME280;53853;51.982;5.928;2023-02-03T07:39:48;102289.75;;;9.71;77.64
66945;BME280;53853;51.982;5.928;2023-02-03T07:42:18;102280.78;;;9.72;78.18
66945;BME280;53853;51.982;5.928;2023-02-03T07:44:50;102296.03;;;9.70;78.19
66945;BME280;53853;51.982;5.928;2023-02-03T07:47:20;102285.91;;;9.75;78.14
66945;BME280;53853;51.982;5.928;2023-02-03T07:49:50;102291.22;;;9.75;77.97
66945;BME280;53853;51.982;5.928;2023-02-03T07:52:23;102285.28;;;9.71;77.80
66945;BME280;53853;51.982;5.928;2023-02-03T07:54:52;102293.38;;;9.70;77.86
66945;BME280;53853;51.982;5.928;2023-02-03T07:57:22;102295.09;;;9.71;77.86
66945;BME280;53853;51.982;5.928;2023-02-03T07:59:52;102294.66;;;9.77;78.43
66945;BME280;53853;51.982;5.928;2023-02-03T08:02:22;102321.13;;;9.78;77.99
66945;BME280;53853;51.982;5.928;2023-02-03T08:04:52;102311.16;;;9.82;78.06
66945;BME280;53853;51.982;5.928;2023-02-03T08:07:26;102321.56;;;9.85;77.88
66945;BME280;53853;51.982;5.928;2023-02-03T08:09:56;102319.75;;;9.86;77.58
66945;BME280;53853;51.982;5.928;2023-02-03T08:12:26;102322.31;;;9.87;nan
66945;BME280;53853;51.982;5.928;2023-02-03T08:14:55;102321.56;;;9.85;77.35
66945;BME280;53853;51.982;5.928;2023-02-03T08:17:26;102320.59;;;9.86;77.73
66945;BME280;53853;51.982;5.928;2023-02-03T08:19:56;102327.53;;;9.89;77.51
66945;BME280;53853;51.982;5.928;2023-02-03T08:22:28;102345.94;;;9.92;77.54
66945;BME280;53853;51.982;5.928;2023-02-03T08:24:58;102345.75;;;9.95;77.54
66945;BME280;53853;51.982;5.928;2023-02-03T08:27:28;102346.47;;;9.97;77.24
66945;BME280;53853;51.982;5.928;2023-02-03T08:29:59;102338.47;;;9.97;77.37
66945;BME280;53853;51.982;5.928;2023-02-03T08:32:29;102345.19;;;10.03;77.89
66945;BME280;53853;51.982;5.928;2023-02-03T08:34:59;102345.72;;;10.08;77.29
66945;BME280;53853;51.982;5.928;2023-02-03T08:37:32;102344.53;;;10.12;76.78
66945;BME280;53853;51.982;5.928;2023-02-03T08:40:02;102334.72;;;10.12;76.66
66945;BME280;53853;51.982;5.928;2023-02-03T08:42:32;102342.63;;;10.14;76.53
66945;BME280;53853;51.982;5.928;2023-02-03T08:45:02;102332.06;;;10.12;76.69
66945;BME280;53853;51.982;5.928;2023-02-03T08:47:32;102339.09;;;10.13;76.89
66945;BME280;53853;51.982;5.928;2023-02-03T08:50:03;102339.84;;;10.15;76.67
66945;BME280;53853;51.982;5.928;2023-02-03T08:52:36;102341.41;;;10.18;76.46
66945;BME280;53853;51.982;5.928;2023-02-03T08:55:06;102341.31;;;10.20;76.08
66945;BME280;53853;51.982;5.928;2023-02-03T08:57:38;102351.00;;;10.21;76.56
66945;BME280;53853;51.982;5.928;2023-02-03T09:00:10;102356.13;;;10.24;77.06
66945;BME280;53853;51.982;5.928;2023-02-03T09:02:40;102339.69;;;10.30;76.38
66945;BME280;53853;51.982;5.928;2023-02-03T09:05:10;102349.22;;;10.34;76.26
66945;BME280;53853;51.982;5.928;2023-02-03T09:07:44;102351.53;;;10.39;76.35
66945;BME280;53853;51.982;5.928;2023-02-03T09:10:15;102353.97;;;10.42;75.84
66945;BME280;53853;51.982;5.928;2023-02-03T09:12:44;102349.41;;;10.44;75.55
66945;BME280;53853;51.982;5.928;2023-02-03T09:15:14;102350.34;;;10.43;75.83
66945;BME280;53853;51.982;5.928;2023-02-03T09:17:44;102350.75;;;10.49;76.59
66945;BME280;53853;51.982;5.928;2023-02-03T09:20:15;102354.06;;;10.53;75.64
66945;BME280;53853;51.982;5.928;2023-02-03T09:22:47;102352.34;;;10.52;75.25
66945;BME280;53853;51.982;5.928;2023-02-03T09:25:17;102341.34;;;10.57;75.59
66945;BME280;53853;51.982;5.928;2023-02-03T09:27:47;102350.06;;;10.59;75.27
66945;BME280;53853;51.982;5.928;2023-02-03T09:30:17;102353.59;;;10.59;75.24
66945;BME280;53853;51.982;5.928;2023-02-03T09:32:47;102357.34;;;10.57;75.21
66945;BME280;53853;51.982;5.928;2023-02-03T09:35:22;102351.13;;;10.56;75.50
66945;BME280;53853;51.982;5.928;2023-02-03T09:37:55;102360.63;;;10.60;75.45
66945;BME280;53853;51.982;5.928;2023-02-03T09:40:29;102369.13;;;10.65;75.23
66945;BME280;53853;51.982;5.928;2023-02-03T09:43:12;102360.56;;;10.73;74.98
66945;BME280;53853;51.982;5.928;2023-02-03T09:45:43;102359.72;;;10.73;74.89
66945;BME280;53853;51.982;5.928;2023-02-03T09:48:15;102374.53;;;10.77;74.96
66945;BME280;53853;51.982;5.928;2023-02-03T09:50:48;102359.38;;;10.77;75.01
66945;BME280;53853;51.982;5.928;2023-02-03T09:53:28;102365.13;;;10.84;75.07
66945;BME280;53853;51.982;5.928;2023-02-03T09:56:02;102373.00;;;10.85;74.78
66945;BME280;53853;51.982;5.928;2023-02-03T09:58:33;102385.16;;;10.90;74.85
66945;BME280;53853;51.982;5.928;2023-02-03T10:01:05;102381.28;;;10.94;74.11
66945;BME280;53853;51.982;5.928;2023-02-03T10:03:41;102383.59;;;10.98;74.86
66945;BME280;53853;51.982;5.928;2023-02-03T10:06:18;102377.94;;;11.03;74.35
66945;BME280;53853;51.982;5.928;2023-02-03T10:09:13;102377.81;;;11.04;73.85
66945;BME280;53853;51.982;5.928;2023-02-03T10:12:01;102377.69;;;11.06;74.23
66945;BME280;53853;51.982;5.928;2023-02-03T10:14:49;102383.66;;;11.10;74.17
66945;BME280;53853;51.982;5.928;2023-02-03T10:17:26;102389.72;;;11.12;73.76
66945;BME280;53853;51.982;5.928;2023-02-03T10:20:03;102384.16;;;11.15;74.27
66945;BME280;53853;51.982;5.928;2023-02-03T10:22:39;102376.25;;;11.13;73.38
66945;BME280;53853;51.982;5.928;2023-02-03T10:25:19;102382.47;;;11.14;73.92
66945;BME280;53853;51.982;5.928;2023-02-03T10:27:52;102387.47;;;11.18;74.57
66945;BME280;53853;51.982;5.928;2023-02-03T10:30:26;102384.09;;;11.28;74.19
66945;BME280;53853;51.982;5.928;2023-02-03T10:33:01;102383.94;;;11.29;73.39
66945;BME280;53853;51.982;5.928;2023-02-03T10:35:47;102392.59;;;11.33;73.93
66945;BME280;53853;51.982;5.928;2023-02-03T10:38:30;102398.31;;;11.39;74.34
66945;BME280;53853;51.982;5.928;2023-02-03T10:41:07;102402.34;;;11.45;73.09
66945;BME280;53853;51.982;5.928;2023-02-03T10:43:37;102390.56;;;11.48;72.48
66945;BME280;53853;51.982;5.928;2023-02-03T10:46:19;102405.75;;;11.47;73.29
66945;BME280;53853;51.982;5.928;2023-02-03T10:48:49;102413.63;;;11.49;72.66
66945;BME280;53853;51.982;5.928;2023-02-03T10:51:21;102411.81;;;11.49;72.46
66945;BME280;53853;51.982;5.928;2023-02-03T10:53:52;102414.25;;;11.52;72.29
66945;BME280;53853;51.982;5.928;2023-02-03T10:56:28;102417.16;;;11.49;71.74
66945;BME280;53853;51.982;5.928;2023-02-03T10:58:59;102417.38;;;11.46;71.89
66945;BME280;53853;51.982;5.928;2023-02-03T11:01:41;102412.03;;;11.46;72.38
66945;BME280;53853;51.982;5.928;2023-02-03T11:04:24;102403.78;;;11.49;72.20
66945;BME280;53853;51.982;5.928;2023-02-03T11:06:56;102402.84;;;11.50;72.43
66945;BME280;53853;51.982;5.928;2023-02-03T11:09:32;102402.50;;;11.55;73.00
66945;BME280;53853;51.982;5.928;2023-02-03T11:12:12;102411.00;;;11.60;71.95
66945;BME280;53853;51.982;5.928;2023-02-03T11:14:43;102393.91;;;11.63;72.10
66945;BME280;53853;51.982;5.928;2023-02-03T11:17:17;102408.81;;;11.65;71.36
66945;BME280;53853;51.982;5.928;2023-02-03T11:19:50;102413.44;;;11.63;71.55
66945;BME280;53853;51.982;5.928;2023-02-03T11:22:29;102422.41;;;11.62;71.73
66945;BME280;53853;51.982;5.928;2023-02-03T11:25:02;102410.88;;;11.62;72.18
66945;BME280;53853;51.982;5.928;2023-02-03T11:27:36;102416.81;;;11.65;72.48
66945;BME280;53853;51.982;5.928;2023-02-03T11:30:13;102434.44;;;11.68;71.74
66945;BME280;53853;51.982;5.928;2023-02-03T11:32:46;102429.81;;;11.70;71.86
66945;BME280;53853;51.982;5.928;2023-02-03T11:35:18;102417.19;;;11.72;71.60
66945;BME280;53853;51.982;5.928;2023-02-03T11:37:51;102417.94;;;11.74;71.39
66945;BME280;53853;51.982;5.928;2023-02-03T11:40:26;102414.41;;;11.73;71.31
66945;BME280;53853;51.982;5.928;2023-02-03T11:43:08;102419.38;;;11.78;71.55
66945;BME280;53853;51.982;5.928;2023-02-03T11:45:45;102416.72;;;11.78;71.00
66945;BME280;53853;51.982;5.928;2023-02-03T11:48:23;102420.03;;;11.82;71.86
66945;BME280;53853;51.982;5.928;2023-02-03T11:51:02;102420.50;;;11.87;71.80
66945;BME280;53853;51.982;5.928;2023-02-03T11:53:45;102425.63;;;11.90;70.78
66945;BME280;53853;51.982;5.928;2023-02-03T11:56:27;102430.84;;;11.91;70.80
66945;BME280;53853;51.982;5.928;2023-02-03T11:59:21;102427.28;;;11.79;70.49
66945;BME280;53853;51.982;5.928;2023-02-03T12:02:02;102421.09;;;11.79;70.89
66945;BME280;53853;51.982;5.928;2023-02-03T12:05:01;102414.28;;;11.75;70.87
66945;BME280;53853;51.982;5.928;2023-02-03T12:07:48;102410.78;;;11.74;70.96
66945;BME280;53853;51.982;5.928;2023-02-03T12:10:31;102424.00;;;11.76;70.68
66945;BME280;53853;51.982;5.928;2023-02-03T12:13:14;102430.31;;;11.75;70.54
66945;BME280;53853;51.982;5.928;2023-02-03T12:16:22;102441.47;;;11.69;71.14
66945;BME280;53853;51.982;5.928;2023-02-03T12:19:07;102440.16;;;11.74;71.80
66945;BME280;53853;51.982;5.928;2023-02-03T12:21:43;102442.47;;;11.79;71.78
66945;BME280;53853;51.982;5.928;2023-02-03T12:24:28;102451.22;;;11.81;70.77
66945;BME280;53853;51.982;5.928;2023-02-03T12:27:13;102458.50;;;11.79;70.98
66945;BME280;53853;51.982;5.928;2023-02-03T12:29:48;102445.25;;;11.77;71.69
66945;BME280;53853;51.982;5.928;2023-02-03T12:32:28;102467.69;;;11.75;73.34
66945;BME280;53853;51.982;5.928;2023-02-03T12:35:05;102461.88;;;11.70;74.10
66945;BME280;53853;51.982;5.928;2023-02-03T12:37:46;102466.00;;;11.63;74.91
66945;BME280;53853;51.982;5.928;2023-02-03T12:40:22;102473.59;;;11.56;75.45
66945;BME280;53853;51.982;5.928;2023-02-03T12:43:02;102479.50;;;11.48;75.97
66945;BME280;53853;51.982;5.928;2023-02-03T12:45:37;102494.28;;;11.41;76.68
66945;BME280;53853;51.982;5.928;2023-02-03T12:48:14;102487.91;;;11.31;77.08
66945;BME280;53853;51.982;5.928;2023-02-03T12:50:50;102494.13;;;11.07;77.95
66945;BME280;53853;51.982;5.928;2023-02-03T12:53:23;102513.69;;;10.95;78.91
66945;BME280;53853;51.982;5.928;2023-02-03T12:55:58;102523.53;;;10.81;79.05
66945;BME280;53853;51.982;5.928;2023-02-03T12:58:35;102514.94;;;10.65;79.28
66945;BME280;53853;51.982;5.928;2023-02-03T13:01:11;102504.91;;;10.56;79.90
66945;BME280;53853;51.982;5.928;2023-02-03T13:03:49;102506.94;;;10.52;80.09
66945;BME280;53853;51.982;5.928;2023-02-03T13:06:25;102503.97;;;10.44;80.20
66945;BME280;53853;51.982;5.928;2023-02-03T13:09:00;102499.06;;;10.38;79.79
66945;BME280;53853;51.982;5.928;2023-02-03T13:11:35;102506.19;;;10.37;80.13
66945;BME280;53853;51.982;5.928;2023-02-03T13:14:14;102506.09;;;10.39;80.27
66945;BME280;53853;51.982;5.928;2023-02-03T13:16:50;102511.31;;;10.40;80.11
66945;BME280;53853;51.982;5.928;2023-02-03T13:19:27;102512.50;;;10.36;79.19
66945;BME280;53853;51.982;5.928;2023-02-03T13:21:59;102515.38;;;10.33;79.42
66945;BME280;53853;51.982;5.928;2023-02-03T13:24:29;102506.19;;;10.37;79.89
66945;BME280;53853;51.982;5.928;2023-02-03T13:30:15;102513.25;;;10.38;79.66
66945;BME280;53853;51.982;5.928;2023-02-03T13:36:02;102508.97;;;10.36;78.57
66945;BME280;53853;51.982;5.928;2023-02-03T13:38:51;102511.53;;;10.37;78.77
66945;BME280;53853;51.982;5.928;2023-02-03T13:41:34;102515.91;;;10.38;78.63
66945;BME280;53853;51.982;5.928;2023-02-03T13:44:11;102515.91;;;10.38;78.10